Time;durP1;ratioP1;P1;durP2;ratioP2;P2;SDS_P1;SDS_P2;PMS_P1;PMS_P2;Temp;Humidity;BMP_temperature;BMP_pressure;BME280_temperature;BME280_humidity;BME280_pressure;Samples;Min_cycle;Max_cycle;Signal;HPM_P1;HPM_P2
2022/08/24 00:00:41;;;;;;;48.40;45.17;;;;;;;24.04;100.00;100838.94;4990085;28;20067;-83
2022/08/24 00:03:10;;;;;;;52.08;48.45;;;;;;;23.16;100.00;100837.56;4979758;28;20129;-83
2022/08/24 00:05:37;;;;;;;57.63;53.28;;;;;;;23.25;100.00;100833.94;4982375;28;20484;-82
2022/08/24 00:08:05;;;;;;;57.47;53.17;;;;;;;22.96;100.00;100843.97;4984141;28;20055;-81
2022/08/24 00:10:32;;;;;;;47.25;43.78;;;;;;;23.69;100.00;100845.59;4981944;28;20054;-84
2022/08/24 00:13:04;;;;;;;49.97;46.22;;;;;;;23.16;100.00;100849.22;4988766;28;20050;-84
2022/08/24 00:15:31;;;;;;;52.05;47.97;;;;;;;22.66;100.00;100853.97;4983552;28;20042;-82
2022/08/24 00:17:58;;;;;;;51.33;46.70;;;;;;;22.34;100.00;100847.19;4990450;28;20054;-81
2022/08/24 00:20:26;;;;;;;50.58;45.75;;;;;;;21.96;100.00;100856.84;4984165;28;20057;-83
2022/08/24 00:22:53;;;;;;;48.92;44.72;;;;;;;22.21;100.00;100855.09;4977383;28;20061;-84
2022/08/24 00:25:22;;;;;;;53.72;49.15;;;;;;;22.32;100.00;100859.38;4986186;28;20046;-83
2022/08/24 00:27:49;;;;;;;51.75;47.35;;;;;;;22.15;100.00;100863.25;4986927;28;20062;-81
2022/08/24 00:30:19;;;;;;;53.85;49.45;;;;;;;21.93;100.00;100866.31;4988984;28;20380;-82
2022/08/24 00:32:48;;;;;;;52.05;47.42;;;;;;;21.86;100.00;100871.22;4980902;28;20538;-82
2022/08/24 00:35:18;;;;;;;55.60;50.88;;;;;;;22.05;100.00;100865.97;4982394;28;20051;-84
2022/08/24 00:37:48;;;;;;;56.60;51.88;;;;;;;22.11;100.00;100870.28;4989229;28;20055;-83
2022/08/24 00:40:19;;;;;;;57.22;52.22;;;;;;;21.92;100.00;100859.28;4990474;28;20054;-84
2022/08/24 00:42:48;;;;;;;57.92;52.63;;;;;;;21.91;100.00;100859.59;4984443;28;20137;-84
2022/08/24 00:45:16;;;;;;;58.88;53.88;;;;;;;22.06;100.00;100853.25;4984586;28;20077;-82
2022/08/24 00:47:48;;;;;;;62.17;57.17;;;;;;;21.99;100.00;100839.25;4975890;28;20539;-84
2022/08/24 00:50:21;;;;;;;59.10;54.30;;;;;;;21.87;100.00;100839.59;4986166;28;20047;-83
2022/08/24 00:52:57;;;;;;;63.45;58.03;;;;;;;21.94;100.00;100837.41;4982177;28;20416;-84
2022/08/24 00:55:31;;;;;;;65.85;60.40;;;;;;;22.13;100.00;100827.53;4988029;28;20058;-83
2022/08/24 00:58:06;;;;;;;58.95;53.85;;;;;;;22.09;100.00;100821.09;4991996;28;20427;-82
2022/08/24 01:00:36;;;;;;;64.80;58.78;;;;;;;21.90;100.00;100809.28;4986327;28;20129;-83
2022/08/24 01:03:08;;;;;;;61.78;55.92;;;;;;;21.73;100.00;100807.75;4981029;28;20059;-84
2022/08/24 01:05:43;;;;;;;72.25;66.25;;;;;;;21.91;100.00;100806.31;4985615;28;20134;-84
2022/08/24 01:08:12;;;;;;;68.72;63.10;;;;;;;21.67;100.00;100805.38;4987738;28;20054;-83
2022/08/24 01:10:44;;;;;;;57.22;51.88;;;;;;;21.79;100.00;100808.56;4984862;28;20487;-84
2022/08/24 01:13:15;;;;;;;56.03;51.20;;;;;;;21.74;100.00;100808.56;4982517;28;20065;-82
2022/08/24 01:15:47;;;;;;;64.72;59.58;;;;;;;21.73;100.00;100805.06;4981363;28;20046;-83
2022/08/24 01:21:16;;;;;;;57.17;52.25;;;;;;;21.88;100.00;100815.00;4978849;28;20058;-81
2022/08/24 01:23:48;;;;;;;59.42;54.22;;;;;;;21.79;100.00;100807.75;4976884;28;20046;-83
2022/08/24 01:26:19;;;;;;;62.20;57.10;;;;;;;21.81;100.00;100813.66;4981328;28;20054;-83
2022/08/24 01:28:50;;;;;;;59.03;53.50;;;;;;;21.76;100.00;100808.31;4976524;28;20455;-83
2022/08/24 01:31:24;;;;;;;60.88;55.58;;;;;;;21.98;100.00;100808.72;4980555;28;20042;-84
2022/08/24 01:33:54;;;;;;;56.35;51.63;;;;;;;21.65;100.00;100802.13;4985026;28;20050;-83
2022/08/24 01:36:31;;;;;;;56.30;50.88;;;;;;;21.55;100.00;100804.88;4987225;28;20047;-82
2022/08/24 01:39:05;;;;;;;54.13;48.88;;;;;;;21.32;100.00;100803.59;4984052;28;20057;-83
2022/08/24 01:41:33;;;;;;;56.35;51.53;;;;;;;21.50;100.00;100801.09;4985097;28;20136;-83
2022/08/24 01:44:00;;;;;;;57.15;52.40;;;;;;;21.19;100.00;100807.69;4985990;28;20051;-81
2022/08/24 01:46:27;;;;;;;55.40;50.45;;;;;;;21.48;100.00;100805.16;4982838;28;20121;-81
2022/08/24 01:48:56;;;;;;;52.78;47.60;;;;;;;21.49;100.00;100807.59;4988720;28;20499;-81
2022/08/24 01:51:23;;;;;;;55.95;51.28;;;;;;;21.19;100.00;100813.09;4987529;28;20043;-82
2022/08/24 01:53:55;;;;;;;53.80;48.88;;;;;;;21.47;100.00;100804.34;4989281;28;20050;-83
2022/08/24 01:56:24;;;;;;;62.45;57.00;;;;;;;21.71;100.00;100809.13;4979110;28;20113;-81
2022/08/24 01:58:57;;;;;;;56.85;52.10;;;;;;;21.31;100.00;100813.59;4988296;28;20411;-83
2022/08/24 02:01:25;;;;;;;53.55;48.95;;;;;;;21.25;100.00;100817.38;5095815;23;20054;-83
2022/08/24 02:03:52;;;;;;;53.63;48.88;;;;;;;21.28;100.00;100814.13;4997150;28;20050;-84
2022/08/24 02:06:19;;;;;;;56.55;51.53;;;;;;;21.38;100.00;100810.63;4996916;28;20050;-85
2022/08/24 02:08:46;;;;;;;53.47;49.05;;;;;;;20.97;100.00;100816.09;4996960;28;20065;-81
2022/08/24 02:11:13;;;;;;;49.50;45.08;;;;;;;20.71;100.00;100809.91;4997426;28;20042;-81
2022/08/24 02:13:42;;;;;;;55.42;50.70;;;;;;;20.71;100.00;100818.81;4996806;28;20046;-84
2022/08/24 02:16:09;;;;;;;56.63;51.63;;;;;;;21.01;100.00;100819.88;4996816;28;20473;-84
2022/08/24 02:18:39;;;;;;;56.08;51.05;;;;;;;21.12;100.00;100823.34;4994274;28;20050;-82
2022/08/24 02:21:07;;;;;;;56.55;51.20;;;;;;;21.23;100.00;100828.44;4996969;28;20057;-82
2022/08/24 02:23:35;;;;;;;60.97;55.75;;;;;;;21.38;100.00;100827.63;4997212;28;20054;-84
2022/08/24 02:26:02;;;;;;;60.67;55.13;;;;;;;21.07;100.00;100826.06;4993287;28;20398;-82
2022/08/24 02:28:29;;;;;;;67.82;62.15;;;;;;;21.27;100.00;100829.53;4996413;28;20450;-81
2022/08/24 02:30:57;;;;;;;60.42;54.60;;;;;;;21.47;100.00;100825.16;4995852;28;20058;-84
2022/08/24 02:33:24;;;;;;;55.28;50.92;;;;;;;21.44;100.00;100828.41;4996959;28;20042;-84
2022/08/24 02:35:52;;;;;;;57.88;53.47;;;;;;;21.31;100.00;100834.38;4997301;28;20038;-85
2022/08/24 02:38:19;;;;;;;55.40;50.50;;;;;;;21.33;100.00;100829.50;4996248;28;20053;-83
2022/08/24 02:40:46;;;;;;;56.35;51.33;;;;;;;21.32;100.00;100826.00;4995468;28;20046;-82
2022/08/24 02:43:13;;;;;;;54.22;49.55;;;;;;;21.47;100.00;100827.88;4995881;28;20065;-82
2022/08/24 02:45:41;;;;;;;57.65;52.85;;;;;;;21.40;100.00;100830.88;4995634;28;20471;-84
2022/08/24 02:48:11;;;;;;;55.28;50.72;;;;;;;21.46;100.00;100831.66;4994025;28;20046;-82
2022/08/24 02:50:39;;;;;;;65.40;60.20;;;;;;;21.40;100.00;100819.25;4988045;28;20117;-82
2022/08/24 02:53:08;;;;;;;58.55;53.75;;;;;;;21.37;100.00;100809.00;4996438;28;20137;-82
2022/08/24 02:55:39;;;;;;;58.08;53.60;;;;;;;21.49;100.00;100813.00;4989445;28;20057;-85
2022/08/24 02:58:08;;;;;;;49.05;45.17;;;;;;;21.51;100.00;100807.31;4980419;28;20074;-84
2022/08/24 03:00:37;;;;;;;46.53;42.90;;;;;;;21.26;100.00;100817.09;4994881;28;20121;-84
2022/08/24 03:03:06;;;;;;;45.88;42.35;;;;;;;21.31;100.00;100820.88;4996745;28;20526;-85
2022/08/24 03:05:36;;;;;;;48.95;45.20;;;;;;;21.56;100.00;100820.00;4996130;28;20047;-81
2022/08/24 03:08:05;;;;;;;47.80;44.22;;;;;;;21.55;100.00;100821.91;4995875;28;20116;-82
2022/08/24 03:10:32;;;;;;;43.78;40.72;;;;;;;21.57;100.00;100819.72;4991641;28;20116;-85
2022/08/24 03:13:01;;;;;;;42.20;38.88;;;;;;;21.65;100.00;100834.56;4996462;28;20057;-82
2022/08/24 03:15:28;;;;;;;43.78;40.17;;;;;;;21.61;100.00;100830.81;4997039;28;20046;-82
2022/08/24 03:17:55;;;;;;;43.40;39.90;;;;;;;21.49;100.00;100833.81;4996649;28;20110;-85
2022/08/24 03:20:23;;;;;;;43.78;40.55;;;;;;;21.42;100.00;100838.69;4996299;28;20058;-82
2022/08/24 03:23:07;;;;;;;45.28;41.70;;;;;;;21.54;100.00;100839.19;4996354;28;20089;-85
2022/08/24 03:25:34;;;;;;;47.92;44.08;;;;;;;21.53;100.00;100845.69;4994651;28;20507;-83
2022/08/24 03:28:01;;;;;;;45.13;41.58;;;;;;;21.56;100.00;100849.72;4996546;28;20062;-81
2022/08/24 03:30:30;;;;;;;45.08;41.67;;;;;;;21.74;100.00;100859.91;4996012;28;20061;-84
2022/08/24 03:33:05;;;;;;;56.17;52.03;;;;;;;21.81;100.00;100851.50;4996900;28;20054;-83
2022/08/24 03:35:33;;;;;;;67.10;62.58;;;;;;;21.88;100.00;100857.44;4995586;28;20042;-82
2022/08/24 03:38:02;;;;;;;56.28;52.42;;;;;;;21.70;100.00;100865.06;4995778;28;20398;-85
2022/08/24 03:40:34;;;;;;;47.65;44.53;;;;;;;21.88;100.00;100852.84;4995875;28;20046;-85
2022/08/24 03:43:02;;;;;;;;;;;;;;;21.79;100.00;100859.09;4997026;28;20058;-84
2022/08/24 03:45:30;;;;;;;45.05;42.15;;;;;;;21.65;100.00;100867.00;4996951;28;19922;-84
2022/08/24 03:47:57;;;;;;;51.55;48.28;;;;;;;21.82;100.00;100866.66;4996351;28;20054;-81
2022/08/24 03:50:25;;;;;;;44.05;40.60;;;;;;;21.97;100.00;100861.19;4997056;28;20121;-86
2022/08/24 03:52:53;;;;;;;50.60;47.03;;;;;;;21.99;100.00;100856.28;4996340;28;20043;-83
2022/08/24 03:55:20;;;;;;;41.95;38.88;;;;;;;21.75;100.00;100861.53;4996100;28;20038;-83
2022/08/24 03:57:53;;;;;;;41.65;39.17;;;;;;;21.84;100.00;100856.34;4996143;28;20490;-84
2022/08/24 04:00:21;;;;;;;42.67;39.65;;;;;;;21.68;100.00;100861.03;4995979;28;20050;-84
2022/08/24 04:02:48;;;;;;;41.30;38.25;;;;;;;21.88;100.00;100855.53;4996093;28;20058;-82
2022/08/24 04:05:15;;;;;;;41.88;39.28;;;;;;;21.87;100.00;100851.19;4998250;28;20375;-82
2022/08/24 04:07:43;;;;;;;39.40;36.67;;;;;;;22.06;100.00;100859.50;4996702;28;20046;-85
2022/08/24 04:10:13;;;;;;;41.72;38.78;;;;;;;21.94;100.00;100853.63;4995034;28;20057;-83
2022/08/24 04:12:44;;;;;;;42.00;39.17;;;;;;;22.08;100.00;100857.31;4995271;28;20050;-83
2022/08/24 04:15:13;;;;;;;41.92;39.05;;;;;;;22.17;100.00;100865.69;4995210;28;20050;-84
2022/08/24 04:17:42;;;;;;;42.13;39.45;;;;;;;22.00;100.00;100857.91;4995211;28;20061;-81
2022/08/24 04:20:11;;;;;;;39.90;37.10;;;;;;;22.03;100.00;100864.63;4995362;28;20498;-84
2022/08/24 04:22:38;;;;;;;38.90;36.22;;;;;;;21.70;100.00;100872.38;4995240;28;20052;-84
2022/08/24 04:25:05;;;;;;;45.90;42.92;;;;;;;21.92;100.00;100866.59;4995553;28;20054;-84
2022/08/24 04:27:34;;;;;;;42.97;40.05;;;;;;;22.14;100.00;100877.84;4995197;28;20485;-82
2022/08/24 04:30:02;;;;;;;38.92;36.40;;;;;;;21.86;100.00;100878.53;4994462;28;20125;-81
2022/08/24 04:32:34;;;;;;;45.65;42.65;;;;;;;22.15;100.00;100871.34;4994845;28;20051;-81
2022/08/24 04:35:02;;;;;;;43.03;39.90;;;;;;;21.84;100.00;100875.28;4993690;28;20054;-84
2022/08/24 04:37:30;;;;;;;44.70;41.90;;;;;;;22.27;100.00;100865.63;4994291;28;20053;-82
2022/08/24 04:40:06;;;;;;;39.20;36.25;;;;;;;21.86;100.00;100882.03;4993723;28;20058;-85
2022/08/24 04:42:36;;;;;;;41.90;39.05;;;;;;;22.36;100.00;100871.22;4994399;28;20507;-85
2022/08/24 04:45:10;;;;;;;39.85;36.95;;;;;;;22.14;100.00;100875.13;4987740;28;20054;-85
2022/08/24 04:47:44;;;;;;;46.65;43.45;;;;;;;22.28;100.00;100879.97;4991870;28;20129;-83
2022/08/24 04:50:13;;;;;;;41.75;38.70;;;;;;;22.36;100.00;100877.47;4994641;28;20047;-84
2022/08/24 04:52:40;;;;;;;41.47;38.67;;;;;;;22.25;100.00;100880.53;4988144;28;20042;-80
2022/08/24 04:55:13;;;;;;;39.80;37.03;;;;;;;22.22;100.00;100886.50;4993580;28;20137;-85
2022/08/24 04:57:40;;;;;;;43.03;40.28;;;;;;;22.32;100.00;100898.03;4990358;28;20042;-81
2022/08/24 05:00:09;;;;;;;41.63;38.67;;;;;;;22.39;100.00;100893.16;4994814;28;20054;-84
2022/08/24 05:02:39;;;;;;;40.72;37.72;;;;;;;22.26;100.00;100892.94;4993811;28;20050;-86
2022/08/24 05:05:10;;;;;;;39.78;36.72;;;;;;;22.30;100.00;100894.00;4993686;28;20078;-85
2022/08/24 05:07:37;;;;;;;36.33;34.03;;;;;;;21.94;100.00;100892.28;4993650;28;20498;-84
2022/08/24 05:10:08;;;;;;;39.25;35.88;;;;;;;22.25;100.00;100892.16;4993291;28;20057;-86
2022/08/24 05:12:35;;;;;;;41.15;38.05;;;;;;;22.26;100.00;100896.47;4993984;28;20081;-83
2022/08/24 05:15:02;;;;;;;37.92;34.92;;;;;;;22.14;100.00;100895.97;4994115;28;20054;-82
2022/08/24 05:17:29;;;;;;;39.97;37.30;;;;;;;22.33;100.00;100906.97;4994393;28;20046;-82
2022/08/24 05:19:58;;;;;;;40.35;37.65;;;;;;;22.40;100.00;100893.94;4992635;28;20046;-84
2022/08/24 05:22:26;;;;;;;42.80;40.17;;;;;;;22.45;100.00;100893.09;4992453;28;20082;-82
2022/08/24 05:24:54;;;;;;;40.88;38.08;;;;;;;22.52;100.00;100883.59;4986530;28;20460;-83
2022/08/24 05:27:21;;;;;;;41.17;37.80;;;;;;;22.65;100.00;100892.97;4993752;28;20057;-82
2022/08/24 05:29:52;;;;;;;41.05;38.38;;;;;;;22.79;100.00;100890.44;4986418;28;20091;-84
2022/08/24 05:32:19;;;;;;;41.38;38.67;;;;;;;22.84;100.00;100891.19;4988138;28;20042;-84
2022/08/24 05:34:46;;;;;;;41.40;38.83;;;;;;;22.67;100.00;100889.97;4988367;28;20038;-82
2022/08/24 05:37:13;;;;;;;42.53;39.75;;;;;;;22.77;100.00;100885.28;4989809;28;20047;-82
2022/08/24 05:39:42;;;;;;;41.72;38.88;;;;;;;23.05;100.00;100888.31;4988266;28;20070;-82
2022/08/24 05:42:09;;;;;;;37.50;35.00;;;;;;;22.81;100.00;100886.34;4988411;28;20372;-82
2022/08/24 05:44:36;;;;;;;38.53;35.33;;;;;;;23.13;100.00;100886.91;4990854;28;20038;-83
2022/08/24 05:47:04;;;;;;;40.95;37.60;;;;;;;23.19;100.00;100880.34;4991898;28;20453;-82
2022/08/24 05:49:31;;;;;;;37.28;34.97;;;;;;;23.27;100.00;100882.44;4993079;28;20038;-81
2022/08/24 05:52:01;;;;;;;33.60;31.27;;;;;;;23.34;100.00;100877.47;4993464;28;20046;-84
2022/08/24 05:54:28;;;;;;;35.35;32.70;;;;;;;23.43;100.00;100878.47;4991680;28;20372;-85
2022/08/24 05:57:03;;;;;;;36.28;33.75;;;;;;;23.11;100.00;100864.69;4993569;28;20058;-84
2022/08/24 05:59:30;;;;;;;40.67;37.88;;;;;;;23.24;100.00;100864.84;4993178;28;20125;-84
2022/08/24 06:01:59;;;;;;;42.42;39.72;;;;;;;23.47;100.00;100879.47;4992997;28;20054;-82
2022/08/24 06:04:28;;;;;;;37.28;35.03;;;;;;;23.29;100.00;100881.03;4985682;28;20047;-84
2022/08/24 06:06:57;;;;;;;35.65;33.05;;;;;;;23.19;100.00;100874.94;4993487;28;20081;-84
2022/08/24 06:09:24;;;;;;;40.47;37.97;;;;;;;23.48;100.00;100872.97;4993702;28;20047;-83
2022/08/24 06:11:51;;;;;;;35.65;33.28;;;;;;;23.59;100.00;100889.94;4993875;28;20058;-84
2022/08/24 06:14:19;;;;;;;44.10;41.25;;;;;;;23.20;100.00;100892.78;4993501;28;20061;-85
2022/08/24 06:16:48;;;;;;;37.50;35.20;;;;;;;23.30;100.00;100895.41;4992927;28;20388;-82
2022/08/24 06:19:17;;;;;;;41.72;39.08;;;;;;;22.83;100.00;100907.72;4986964;28;20057;-81
2022/08/24 06:21:46;;;;;;;40.33;37.83;;;;;;;23.01;100.00;100917.06;4992074;28;20042;-82
2022/08/24 06:24:14;;;;;;;38.03;35.60;;;;;;;23.28;100.00;100911.94;4987336;28;20051;-83
2022/08/24 06:29:30;;;;;;;44.38;41.42;;;;;;;23.30;100.00;100909.75;4983391;28;20506;-81
2022/08/24 06:31:59;;;;;;;46.92;43.90;;;;;;;23.75;100.00;100912.25;4992694;28;20039;-82
2022/08/24 06:34:29;;;;;;;48.08;45.22;;;;;;;23.82;100.00;100912.75;4992146;28;20043;-84
2022/08/24 06:36:56;;;;;;;40.45;38.05;;;;;;;23.83;100.00;100911.63;4992330;28;20084;-81
2022/08/24 06:39:23;;;;;;;38.35;36.00;;;;;;;23.74;100.00;100913.38;4990299;28;20050;-84
2022/08/24 06:41:50;;;;;;;39.40;37.10;;;;;;;23.54;100.00;100911.66;4991833;28;20057;-82
2022/08/24 06:44:18;;;;;;;35.35;33.28;;;;;;;23.51;100.00;100910.34;4991239;28;20105;-84
2022/08/24 06:46:47;;;;;;;36.90;34.80;;;;;;;23.97;100.00;100896.28;4995666;28;20055;-84
2022/08/24 06:49:14;;;;;;;42.10;39.08;;;;;;;24.12;100.00;100902.59;4997021;28;20065;-80
2022/08/24 06:51:46;;;;;;;37.58;35.17;;;;;;;24.26;100.00;100905.38;4996464;28;20050;-84
2022/08/24 06:54:14;;;;;;;36.38;34.08;;;;;;;24.82;100.00;100899.94;4996004;28;20054;-85
2022/08/24 06:56:46;;;;;;;36.35;33.92;;;;;;;23.70;100.00;100896.06;4997167;28;20042;-84
2022/08/24 06:59:16;;;;;;;38.20;35.72;;;;;;;23.91;100.00;100896.63;4997179;28;20053;-83
2022/08/24 07:01:43;;;;;;;39.05;36.45;;;;;;;24.36;100.00;100894.41;4995839;28;20384;-84
2022/08/24 07:04:11;;;;;;;38.40;35.88;;;;;;;24.66;100.00;100896.66;4995264;28;20054;-81
2022/08/24 07:06:38;;;;;;;39.53;36.92;;;;;;;24.65;100.00;100883.38;4996668;28;20050;-81
2022/08/24 07:09:05;;;;;;;41.25;38.85;;;;;;;24.42;100.00;100887.81;4995027;28;20046;-81
2022/08/24 07:11:34;;;;;;;37.63;35.08;;;;;;;25.14;100.00;100890.16;4996535;28;20042;-84
2022/08/24 07:14:01;;;;;;;42.03;39.33;;;;;;;24.50;100.00;100889.84;4996109;28;20050;-81
2022/08/24 07:16:29;;;;;;;38.38;35.78;;;;;;;24.51;100.00;100885.22;4996081;28;20058;-80
2022/08/24 07:18:57;;;;;;;36.03;33.83;;;;;;;25.61;100.00;100884.69;4995072;28;20050;-82
2022/08/24 07:21:25;;;;;;;34.85;32.72;;;;;;;24.79;100.00;100883.44;4995813;28;20050;-82
2022/08/24 07:23:55;;;;;;;40.40;37.80;;;;;;;24.73;100.00;100876.47;4996106;28;20050;-80
2022/08/24 07:26:26;;;;;;;39.53;36.92;;;;;;;25.63;100.00;100885.16;4996121;28;20201;-81
2022/08/24 07:29:05;;;;;;;35.53;33.13;;;;;;;25.54;100.00;100879.66;4995705;28;20043;-83
2022/08/24 07:31:32;;;;;;;37.28;34.97;;;;;;;25.53;100.00;100883.47;4995408;28;20050;-81
2022/08/24 07:34:01;;;;;;;36.65;34.42;;;;;;;25.77;100.00;100873.16;4995894;28;20446;-83
2022/08/24 07:36:31;;;;;;;32.67;30.67;;;;;;;26.23;100.00;100872.22;4989554;28;20073;-84
2022/08/24 07:38:57;;;;;;;32.60;30.40;;;;;;;25.01;100.00;100870.00;4995812;28;20128;-81
2022/08/24 07:41:26;;;;;;;34.13;32.13;;;;;;;25.58;100.00;100864.34;4991359;28;20047;-83
2022/08/24 07:43:54;;;;;;;32.70;30.63;;;;;;;25.97;100.00;100857.56;4993701;28;20141;-82
2022/08/24 07:46:22;;;;;;;31.08;29.27;;;;;;;25.91;100.00;100865.03;4995635;28;20076;-82
2022/08/24 07:48:50;;;;;;;27.58;26.00;;;;;;;25.55;100.00;100856.78;4994879;28;20038;-84
2022/08/24 07:51:19;;;;;;;30.52;28.60;;;;;;;26.32;100.00;100861.38;4995903;28;20061;-82
2022/08/24 07:53:47;;;;;;;30.58;28.60;;;;;;;26.80;100.00;100859.97;4994666;28;20108;-84
2022/08/24 07:56:15;;;;;;;27.88;26.05;;;;;;;26.53;100.00;100875.34;4996037;28;20436;-82
2022/08/24 07:58:42;;;;;;;30.27;28.48;;;;;;;25.46;100.00;100881.16;4995071;28;20057;-82
2022/08/24 08:01:10;;;;;;;32.80;30.48;;;;;;;25.68;100.00;100880.44;4994979;28;20090;-81
2022/08/24 08:03:37;;;;;;;31.55;29.67;;;;;;;25.98;100.00;100879.00;4995892;28;20045;-82
2022/08/24 08:06:07;;;;;;;35.65;33.35;;;;;;;26.96;100.00;100869.38;4995495;28;20053;-82
2022/08/24 08:08:35;;;;;;;29.75;27.65;;;;;;;26.66;100.00;100879.94;4994636;28;20054;-84
2022/08/24 08:11:12;;;;;;;31.67;29.48;;;;;;;26.99;100.00;100871.47;4995223;28;20046;-85
2022/08/24 08:13:39;;;;;;;31.23;28.67;;;;;;;27.04;100.00;100874.06;4995393;28;20391;-84
2022/08/24 08:16:06;;;;;;;30.42;28.42;;;;;;;26.17;100.00;100884.31;4995735;28;20058;-84
2022/08/24 08:18:33;;;;;;;29.77;28.05;;;;;;;26.02;100.00;100881.91;4995242;28;20054;-84
2022/08/24 08:21:02;;;;;;;29.40;27.60;;;;;;;25.44;100.00;100877.13;4995445;28;20418;-84
2022/08/24 08:26:18;;;;;;;28.88;27.10;;;;;;;26.46;100.00;100878.47;4993167;28;20427;-84
2022/08/24 08:28:45;;;;;;;29.35;27.73;;;;;;;26.08;100.00;100886.13;4994684;28;20077;-80
2022/08/24 08:31:12;;;;;;;27.67;26.08;;;;;;;26.76;100.00;100878.88;4994605;28;20054;-83
2022/08/24 08:33:40;;;;;;;27.55;25.90;;;;;;;26.76;100.00;100888.97;4993221;28;20061;-84
2022/08/24 08:36:10;;;;;;;27.98;26.20;;;;;;;25.72;100.00;100877.91;4995042;28;20042;-81
2022/08/24 08:38:38;;;;;;;37.65;34.65;;;;;;;27.10;100.00;100880.97;4994724;28;20046;-82
2022/08/24 08:41:29;;;;;;;37.08;33.67;;;;;;;26.88;100.00;100883.75;4994711;28;20128;-83
2022/08/24 08:44:01;;;;;;;43.80;40.20;;;;;;;27.04;100.00;100889.59;4992018;28;20046;-84
2022/08/24 08:46:45;;;;;;;38.95;35.50;;;;;;;26.95;100.00;100890.34;4995007;28;20046;-82
2022/08/24 08:49:50;;;;;;;37.45;34.47;;;;;;;26.60;100.00;100886.63;4988605;28;20050;-81
2022/08/24 08:52:32;;;;;;;39.45;36.47;;;;;;;26.78;100.00;100890.28;4993403;28;20050;-81
2022/08/24 08:55:04;;;;;;;;;;;;;;;27.40;100.00;100886.75;4991500;28;20073;-84
2022/08/24 08:57:51;;;;;;;35.27;32.57;;;;;;;27.01;100.00;100884.78;4994144;28;19922;-81
2022/08/24 09:00:22;;;;;;;37.58;35.05;;;;;;;26.90;100.00;100878.78;4987999;28;20404;-83
2022/08/24 09:03:24;;;;;;;40.83;37.63;;;;;;;27.82;100.00;100881.78;4993037;28;20058;-84
2022/08/24 09:06:09;;;;;;;38.60;35.90;;;;;;;26.80;100.00;100873.59;4961233;28;20097;-82
2022/08/24 09:09:02;;;;;;;42.97;39.70;;;;;;;27.78;100.00;100872.63;4993679;28;20057;-85
2022/08/24 09:11:40;;;;;;;47.72;44.22;;;;;;;27.52;100.00;100867.06;4952179;28;20050;-84
2022/08/24 09:14:45;;;;;;;41.05;38.25;;;;;;;27.21;100.00;100867.91;4989457;28;20109;-83
2022/08/24 09:17:29;;;;;;;44.70;41.78;;;;;;;27.90;100.00;100869.25;4992121;28;20054;-80
2022/08/24 09:20:13;;;;;;;44.95;42.10;;;;;;;27.67;100.00;100858.44;4991214;28;20050;-86
2022/08/24 09:22:43;;;;;;;45.50;42.08;;;;;;;27.86;100.00;100856.25;4990523;28;20038;-79
2022/08/24 09:25:25;;;;;;;43.75;40.42;;;;;;;27.89;100.00;100856.75;4992654;28;20491;-83
2022/08/24 09:28:34;;;;;;;46.15;41.88;;;;;;;28.25;100.00;100857.22;4992089;28;20123;-85
2022/08/24 09:31:27;;;;;;;51.90;48.03;;;;;;;27.90;100.00;100855.59;4907787;29;20048;-82
2022/08/24 09:34:07;;;;;;;45.90;42.13;;;;;;;27.77;100.00;100858.13;4993386;28;20046;-83
2022/08/24 09:36:52;;;;;;;42.33;38.80;;;;;;;27.80;100.00;100868.44;4993410;28;20130;-83
2022/08/24 09:39:54;;;;;;;47.10;43.65;;;;;;;27.68;100.00;100862.75;4993321;28;20117;-82
2022/08/24 09:42:56;;;;;;;47.15;43.58;;;;;;;28.19;100.00;100865.91;4985736;28;20426;-82
2022/08/24 09:45:54;;;;;;;48.97;45.00;;;;;;;29.02;100.00;100862.13;4990254;28;20046;-82
2022/08/24 09:48:57;;;;;;;44.08;40.40;;;;;;;28.42;100.00;100859.19;4993512;28;20047;-79
2022/08/24 09:51:58;;;;;;;31.77;29.13;;;;;;;27.68;100.00;100868.22;4993408;28;20093;-82
2022/08/24 09:54:46;;;;;;;31.13;28.92;;;;;;;28.27;100.00;100867.84;4954167;28;20462;-79
2022/08/24 09:57:52;;;;;;;34.72;31.98;;;;;;;28.39;100.00;100861.75;4990994;28;20058;-81
2022/08/24 10:00:27;;;;;;;35.88;33.00;;;;;;;27.84;100.00;100852.25;4967960;28;20112;-80
2022/08/24 10:03:14;;;;;;;32.97;30.88;;;;;;;28.20;100.00;100843.75;4992518;28;20105;-81
2022/08/24 10:06:01;;;;;;;36.38;33.78;;;;;;;29.16;100.00;100846.31;4989543;28;20054;-80
2022/08/24 10:08:38;;;;;;;32.60;30.13;;;;;;;28.41;100.00;100849.38;4989734;28;20120;-79
2022/08/24 10:11:18;;;;;;;33.00;30.38;;;;;;;28.56;100.00;100844.53;4992086;28;20112;-85
2022/08/24 10:13:55;;;;;;;32.80;30.52;;;;;;;28.43;100.00;100844.41;4989703;28;20046;-83
2022/08/24 10:16:33;;;;;;;33.13;30.38;;;;;;;28.61;100.00;100838.91;4997717;28;20047;-85
2022/08/24 10:19:15;;;;;;;34.40;32.10;;;;;;;28.56;100.00;100841.81;4997312;28;20050;-81
2022/08/24 10:21:57;;;;;;;32.30;29.90;;;;;;;28.94;100.00;100830.94;4995750;28;20069;-83
2022/08/24 10:24:52;;;;;;;32.55;29.95;;;;;;;29.06;100.00;100835.75;4996747;28;20046;-83
2022/08/24 10:27:39;;;;;;;30.52;28.35;;;;;;;30.00;100.00;100841.03;4990613;28;20101;-82
2022/08/24 10:30:47;;;;;;;32.40;29.70;;;;;;;29.99;100.00;100829.28;4990919;28;20502;-80
2022/08/24 10:33:20;;;;;;;34.28;31.88;;;;;;;29.66;100.00;100832.72;4996240;28;20184;-80
2022/08/24 10:36:03;;;;;;;34.45;31.88;;;;;;;28.50;100.00;100836.53;4996532;28;20496;-80
2022/08/24 10:43:32;;;;;;;33.83;31.23;;;;;;;28.42;100.00;100817.44;4975321;28;20066;-80
2022/08/24 10:45:27;;;;;;;31.48;29.02;;;;;;;28.86;100.00;100816.16;4973210;28;20051;-80
2022/08/24 10:48:14;;;;;;;33.45;30.73;;;;;;;28.95;100.00;100821.59;4996062;28;20054;-83
2022/08/24 10:50:56;;;;;;;32.72;29.70;;;;;;;29.01;100.00;100812.09;4988684;28;20141;-83
2022/08/24 10:53:26;;;;;;;31.83;29.17;;;;;;;28.84;100.00;100803.97;4996679;28;20050;-81
2022/08/24 10:56:05;;;;;;;31.40;28.60;;;;;;;29.43;100.00;100802.09;5005482;28;20305;-83
2022/08/24 10:58:52;;;;;;;32.33;29.40;;;;;;;30.91;100.00;100783.59;4996302;28;20237;-81
2022/08/24 11:01:26;;;;;;;32.03;28.88;;;;;;;29.37;100.00;100791.69;4994152;28;20065;-80
2022/08/24 11:03:58;;;;;;;33.63;30.80;;;;;;;29.85;100.00;100784.94;4994977;28;20053;-83
2022/08/24 11:06:35;;;;;;;31.23;28.43;;;;;;;31.62;100.00;100776.78;4995815;28;20410;-80
2022/08/24 11:09:07;;;;;;;30.00;27.50;;;;;;;31.25;100.00;100782.31;4993396;28;20467;-83
2022/08/24 11:11:38;;;;;;;29.73;27.00;;;;;;;29.95;100.00;100781.00;4992987;28;20470;-83
2022/08/24 11:14:10;;;;;;;32.70;29.63;;;;;;;31.22;100.00;100770.09;4995075;28;20042;-81
2022/08/24 11:16:39;;;;;;;33.70;30.43;;;;;;;31.55;100.00;100765.63;4994619;28;20046;-83
2022/08/24 11:19:12;;;;;;;32.92;29.52;;;;;;;31.62;100.00;100765.81;4991763;28;20061;-81
2022/08/24 11:21:48;;;;;;;33.40;30.08;;;;;;;30.02;100.00;100768.38;4995611;28;20125;-80
2022/08/24 11:24:38;;;;;;;29.10;26.58;;;;;;;29.60;100.00;100764.84;4994792;28;20073;-79
2022/08/24 11:27:09;;;;;;;30.45;27.40;;;;;;;30.97;100.00;100766.56;4994181;28;20129;-80
2022/08/24 11:30:00;;;;;;;31.73;28.50;;;;;;;32.07;100.00;100770.25;4993672;28;20065;-84
2022/08/24 11:32:38;;;;;;;30.97;28.00;;;;;;;31.77;100.00;100761.53;4995222;28;20046;-83
2022/08/24 11:35:09;;;;;;;30.02;27.38;;;;;;;31.71;100.00;100756.31;4994439;28;20046;-83
2022/08/24 11:37:39;;;;;;;29.80;27.25;;;;;;;32.91;100.00;100752.81;4994999;28;20107;-83